Nearby METAR Reports

 

KSGR - Houston/Sugar La, Texas, USA
Distance from station: ESE 7mi, 12km
Updated: Mon, 25-Oct-2021 2:14am CDT
Fog, Overcast
Fog, Overcast
 Wind from SSW
Wind: SSW 6 mph , 9 km/h
Temperature: 77°F , 25°C
Dew Point: 75°F , 24°C
Humidity: 94%
Barometer: 29.91 inHg , 1012.9 hPa
Summary: Fog
Clouds: Overcast
Visibility: 1/2 mile , 0.8 km
Cloud details: Overcast 200 ft
2021/10/25 07:14 KSGR 250714Z AUTO 20005KT 1/2SM FG VV002 25/24 A2991 RMK AO2 T02500239 PNO $
KTME - Houston Exec, Texas, USA
Distance from station: NW 14mi, 22km
Updated: Mon, 25-Oct-2021 2:35am CDT
Mist, Overcast
Mist, Overcast
 Wind from SSW
Wind: SSW 3 mph , 6 km/h
Temperature: 75°F , 24°C
Dew Point: 75°F , 24°C
Humidity: 100%
Barometer: 29.93 inHg , 1013.5 hPa
Summary: Mist
Clouds: Overcast
Visibility: 1/2 mile , 0.8 km
Cloud details: Overcast 200 ft
2021/10/25 07:35 KTME 250735Z AUTO 21003KT 1/2SM BR OVC002 24/24 A2993 RMK AO2
 
KAXH - Houston/Southwst, Texas, USA
Distance from station: ESE 19mi, 31km
Updated: Mon, 25-Oct-2021 2:35am CDT
Mist, Overcast
Mist, Overcast
 Wind from calm
Wind: Calm
Temperature: 73°F , 23°C
Dew Point: 73°F , 23°C
Humidity: 100%
Barometer: 29.93 inHg , 1013.5 hPa
Summary: Mist
Clouds: Overcast
Visibility: 1 mile , 2 km
Cloud details: Overcast 400 ft
2021/10/25 07:35 KAXH 250735Z AUTO 00000KT 1SM BR OVC004 23/23 A2993 RMK AO2 T02320225
KMCJ - Houston/Univ, Texas, USA
Distance from station: ENE 23mi, 37km
Updated: Mon, 25-Oct-2021 2:35am CDT
Mist, Overcast
Mist, Overcast
 Wind from N
Wind: N 0 mph , 0 km/h, Gust: 12 mph , 19 km/h
Temperature: 75°F , 24°C
Dew Point: 73°F , 23°C
Humidity: 94%
Barometer: 29.91 inHg , 1012.9 hPa
Summary: Mist
Clouds: Overcast
Visibility: 4 miles , 6 km
Cloud details: Overcast 600 ft
2021/10/25 07:35 KMCJ 250735Z AUTO 00000G10KT 4SM BR OVC006 24/23 A2991 RMK A01
 
KHOU - Houston/Hobby, Texas, USA
Distance from station: E 29mi, 47km
Updated: Mon, 25-Oct-2021 1:53am CDT
Shallow fog, Mostly cloudy
Shallow fog, Mostly cloudy
 Wind from calm
Wind: Calm
Temperature: 75°F , 24°C
Dew Point: 72°F , 22°C
Humidity: 89%
Barometer: 29.91 inHg , 1012.9 hPa
Summary: Shallow Fog
Clouds: Mostly cloudy
Visibility: 7 miles , 11 km
Cloud details: Few Clouds 600 ft
Mostly cloudy 1000 ft
2021/10/25 06:53 KHOU 250653Z 00000KT 7SM MIFG FEW006 BKN010 24/22 A2991 RMK AO2 SLP132 T02390222
KDWH - Houston/Dw Hooks, Texas, USA
Distance from station: NNE 32mi, 52km
Updated: Mon, 25-Oct-2021 1:53am CDT
Partly cloudy
Partly cloudy
 Wind from S
Wind: S 5 mph , 7 km/h
Temperature: 75°F , 24°C
Dew Point: 73°F , 23°C
Humidity: 94%
Barometer: 29.91 inHg , 1012.9 hPa
Clouds: Partly cloudy
Visibility: 10 miles , 16 km
Cloud details: Partly cloudy 1000 ft
2021/10/25 06:53 KDWH 250653Z AUTO 19004KT 10SM SCT010 24/23 A2991 RMK AO2 SLP126 T02440233
 
KLVJ - Houston, Texas, USA
Distance from station: ESE 32mi, 52km
Updated: Mon, 25-Oct-2021 2:33am CDT
Mist, Overcast
Mist, Overcast
 Wind from calm
Wind: Calm
Temperature: 73°F , 23°C
Dew Point: 72°F , 22°C
Humidity: 94%
Barometer: 29.93 inHg , 1013.5 hPa
Summary: Mist
Clouds: Overcast
Visibility: 3 miles , 5 km
Cloud details: Overcast 900 ft
2021/10/25 07:33 KLVJ 250733Z AUTO 00000KT 3SM BR OVC009 23/22 A2993 RMK AO2 T02280217
KELA - Eagle Lake, Texas, USA
Distance from station: W 33mi, 53km
Updated: Mon, 25-Oct-2021 2:35am CDT
Fog, Overcast
Fog, Overcast
 Wind from calm
Wind: Calm
Temperature: 75°F , 24°C
Dew Point: 73°F , 23°C
Humidity: 94%
Barometer: 29.91 inHg , 1012.9 hPa
Summary: Fog
Clouds: Overcast
Visibility: 1/2 mile , 0.8 km
Cloud details: Overcast 200 ft
2021/10/25 07:35 KELA 250735Z AUTO 00000KT 1/2SM FG OVC002 24/23 A2991 RMK AO2 T02390234
 
KIAH - Houston/Intnl, Texas, USA
Distance from station: NE 35mi, 56km
Updated: Mon, 25-Oct-2021 1:53am CDT
Mostly cloudy
Mostly cloudy
 Wind from calm
Wind: Calm
Temperature: 73°F , 23°C
Dew Point: 72°F , 22°C
Humidity: 94%
Barometer: 29.91 inHg , 1012.9 hPa
Clouds: Mostly cloudy
Visibility: 10 miles , 16 km
Cloud details: Few Clouds 800 ft
Mostly cloudy 1600 ft
2021/10/25 06:53 KIAH 250653Z 00000KT 10SM FEW008 BKN016 23/22 A2991 RMK AO2 SLP128 T02330217
KARM - Wharton, Texas, USA
Distance from station: SW 35mi, 57km
Updated: Mon, 25-Oct-2021 2:35am CDT
Fog, Overcast
Fog, Overcast
 Wind from calm
Wind: Calm
Temperature: 72°F , 22°C
Dew Point: 72°F , 22°C
Humidity: 100%
Barometer: 29.92 inHg , 1013.2 hPa
Summary: Fog
Clouds: Overcast
Visibility: 1/4 mile , 0.4 km
Cloud details: Overcast 300 ft
2021/10/25 07:35 KARM 250735Z AUTO 00000KT 1/4SM FG OVC003 22/22 A2992 RMK AO2 T02170217
 
KEFD - Houston/Ellingto, Texas, USA
Distance from station: E 36mi, 59km
Updated: Mon, 25-Oct-2021 1:50am CDT
Clear
Clear
 Wind from calm
Wind: Calm
Temperature: 73°F , 23°C
Dew Point: 72°F , 22°C
Humidity: 94%
Barometer: 29.91 inHg , 1012.9 hPa
Clouds: Clear
Visibility: 10 miles , 16 km
2021/10/25 06:50 KEFD 250650Z 00000KT 10SM CLR 23/22 A2991
KLBX - Angleton, Texas, USA
Distance from station: SSE 40mi, 65km
Updated: Mon, 25-Oct-2021 2:41am CDT
Fog, Overcast
Fog, Overcast
 Wind from calm
Wind: Calm
Temperature: 72°F , 22°C
Dew Point: 70°F , 21°C
Humidity: 94%
Barometer: 29.91 inHg , 1012.9 hPa
Summary: Fog
Clouds: Overcast
Visibility: 1/4 mile , 0.4 km
Cloud details: Overcast 400 ft
2021/10/25 07:41 KLBX 250741Z AUTO 00000KT 1/4SM FG VV004 22/21 A2991 RMK AO2 T02220211
 
K66R - Columbus, Texas, USA
Distance from station: W 45mi, 72km
Updated: Mon, 25-Oct-2021 2:35am CDT
Mist, Overcast
Mist, Overcast
 Wind from calm
Wind: Calm
Temperature: 75°F , 24°C
Dew Point: 75°F , 24°C
Humidity: 100%
Barometer: 29.92 inHg , 1013.2 hPa
Summary: Mist
Clouds: Overcast
Visibility: 3/4 mile , 1.2 km
Cloud details: Overcast 300 ft
2021/10/25 07:35 K66R 250735Z AUTO 00000KT 3/4SM BR OVC003 24/24 A2992 RMK AO2 T02350235
KBYY - Bay City, Texas, USA
Distance from station: S 47mi, 75km
Updated: Mon, 25-Oct-2021 2:35am CDT
Fog, Overcast
Fog, Overcast
 Wind from calm
Wind: Calm
Temperature: 72°F , 22°C
Dew Point: 72°F , 22°C
Humidity: 100%
Barometer: 29.91 inHg , 1012.9 hPa
Summary: Fog
Clouds: Overcast
Visibility: 1/2 mile , 0.8 km
Cloud details: Overcast 200 ft
2021/10/25 07:35 KBYY 250735Z AUTO 00000KT 1/2SM FG OVC002 22/22 A2991 RMK AO2 T02260226